Time;durP1;ratioP1;P1;durP2;ratioP2;P2;SDS_P1;SDS_P2;PMS_P1;PMS_P2;Temp;Humidity;BMP_temperature;BMP_pressure;BME280_temperature;BME280_humidity;BME280_pressure;Samples;Min_cycle;Max_cycle;Signal;HPM_P1;HPM_P2
2023/10/16 00:02:24;;;;;;;3.28;0.63;;;7.50;99.90;;;;;;5112505;28;20039;-63
2023/10/16 00:04:52;;;;;;;5.18;1.00;;;7.50;99.90;;;;;;5097221;28;20122;-63
2023/10/16 00:07:21;;;;;;;4.53;1.00;;;7.50;99.90;;;;;;5112689;28;20051;-63
2023/10/16 00:09:55;;;;;;;6.57;1.10;;;7.50;99.90;;;;;;5112556;28;20085;-63
2023/10/16 00:12:21;;;;;;;2.08;0.70;;;7.50;99.90;;;;;;5112611;28;20475;-63
2023/10/16 00:14:47;;;;;;;2.33;0.77;;;7.40;99.90;;;;;;5130923;28;20039;-63
2023/10/16 00:17:15;;;;;;;3.15;0.80;;;7.40;99.90;;;;;;5112427;28;20082;-63
2023/10/16 00:19:44;;;;;;;3.88;0.90;;;7.40;99.90;;;;;;5112292;28;20031;-63
2023/10/16 00:22:16;;;;;;;3.10;0.77;;;7.40;99.90;;;;;;5112584;28;20559;-63
2023/10/16 00:24:46;;;;;;;3.00;0.90;;;7.40;99.90;;;;;;5112158;28;20498;-63
2023/10/16 00:27:15;;;;;;;3.72;0.88;;;7.40;99.90;;;;;;5112214;28;20042;-63
2023/10/16 00:29:44;;;;;;;3.42;0.95;;;7.30;99.90;;;;;;5095169;28;20072;-63
2023/10/16 00:32:11;;;;;;;2.97;0.80;;;7.30;99.90;;;;;;5112366;28;20359;-63
2023/10/16 00:34:38;;;;;;;2.40;0.88;;;7.30;99.90;;;;;;5130583;28;20031;-63
2023/10/16 00:37:07;;;;;;;2.17;0.68;;;7.30;99.90;;;;;;5111908;28;20054;-63
2023/10/16 00:39:33;;;;;;;2.92;0.75;;;7.30;99.90;;;;;;5112560;28;20031;-63
2023/10/16 00:41:59;;;;;;;3.50;0.85;;;7.30;99.90;;;;;;5130949;28;20042;-63
2023/10/16 00:44:33;;;;;;;3.50;1.20;;;7.30;99.90;;;;;;5111780;28;20082;-63
2023/10/16 00:47:04;;;;;;;3.65;0.70;;;7.40;99.90;;;;;;5095378;28;20045;-63
2023/10/16 00:49:34;;;;;;;1.88;0.73;;;7.40;99.90;;;;;;5112591;28;20043;-63
2023/10/16 00:52:04;;;;;;;4.75;0.52;;;7.50;99.90;;;;;;5132328;27;20050;-63
2023/10/16 00:54:39;;;;;;;1.77;0.50;;;7.50;99.90;;;;;;5112483;28;20043;-63
2023/10/16 00:57:08;;;;;;;1.92;0.70;;;7.50;99.90;;;;;;5112036;28;20118;-63
2023/10/16 00:59:35;;;;;;;1.35;0.60;;;7.50;99.90;;;;;;5112444;28;20489;-63
2023/10/16 01:02:07;;;;;;;1.67;0.60;;;7.50;99.90;;;;;;5111877;27;20039;-63
2023/10/16 01:04:33;;;;;;;3.63;0.65;;;7.50;99.90;;;;;;5116031;27;20393;-63
2023/10/16 01:07:01;;;;;;;3.63;0.80;;;7.50;99.90;;;;;;5115889;27;20414;-63
2023/10/16 01:09:33;;;;;;;1.65;0.65;;;7.60;99.90;;;;;;5098213;27;20423;-63
2023/10/16 01:11:59;;;;;;;3.15;0.65;;;7.60;99.90;;;;;;5115467;27;20608;-63
2023/10/16 01:14:25;;;;;;;4.18;0.98;;;7.60;99.90;;;;;;5115146;27;20043;-63
2023/10/16 01:16:54;;;;;;;5.00;1.13;;;7.50;99.90;;;;;;5134113;27;20474;-63
2023/10/16 01:19:20;;;;;;;3.67;0.95;;;7.50;99.90;;;;;;5115458;27;20039;-63
2023/10/16 01:21:46;;;;;;;3.22;0.90;;;7.50;99.90;;;;;;5115496;27;20099;-63
2023/10/16 01:24:12;;;;;;;2.05;1.10;;;7.50;99.90;;;;;;5133732;27;20043;-63
2023/10/16 01:26:42;;;;;;;4.05;1.17;;;7.50;99.90;;;;;;5115370;27;20500;-63
2023/10/16 01:29:09;;;;;;;3.20;1.27;;;7.40;99.90;;;;;;5133810;27;20034;-63
2023/10/16 01:31:36;;;;;;;2.70;1.20;;;7.40;99.90;;;;;;5133520;27;20050;-63
2023/10/16 01:34:03;;;;;;;5.13;1.20;;;7.40;99.90;;;;;;5115832;27;20437;-63
2023/10/16 01:36:30;;;;;;;2.47;1.20;;;7.40;99.90;;;;;;5115218;27;20419;-63
2023/10/16 01:38:59;;;;;;;3.90;1.40;;;7.40;99.90;;;;;;5114698;27;20047;-63
2023/10/16 01:41:25;;;;;;;2.30;1.40;;;7.40;99.90;;;;;;5115053;27;20049;-63
2023/10/16 01:43:55;;;;;;;3.00;1.30;;;7.40;99.90;;;;;;5115158;27;20049;-63
2023/10/16 01:46:20;;;;;;;4.65;1.55;;;7.40;99.90;;;;;;5112673;27;20059;-63
2023/10/16 01:48:46;;;;;;;3.88;1.73;;;7.40;99.90;;;;;;5114932;27;20118;-63
2023/10/16 01:51:19;;;;;;;5.72;1.90;;;7.40;99.90;;;;;;5133488;27;20039;-63
2023/10/16 01:53:47;;;;;;;3.53;1.60;;;7.40;99.90;;;;;;5134816;27;20035;-63
2023/10/16 01:56:14;;;;;;;4.35;1.80;;;7.50;99.90;;;;;;5115082;27;20043;-63
2023/10/16 01:58:44;;;;;;;5.75;1.90;;;7.50;99.90;;;;;;5114376;27;20047;-63
2023/10/16 02:01:20;;;;;;;4.25;1.83;;;7.50;99.90;;;;;;5114839;27;20438;-63
2023/10/16 02:03:49;;;;;;;4.25;1.95;;;7.50;99.90;;;;;;5113217;27;20039;-63
2023/10/16 02:06:17;;;;;;;5.13;2.10;;;7.50;99.90;;;;;;5114631;27;20054;-63
2023/10/16 02:08:44;;;;;;;3.95;2.20;;;7.50;99.90;;;;;;5114324;27;20520;-63
2023/10/16 02:11:11;;;;;;;4.18;2.03;;;7.50;99.90;;;;;;5114338;27;20046;-63
2023/10/16 02:13:40;;;;;;;4.53;2.30;;;7.50;99.90;;;;;;5132743;27;20070;-63
2023/10/16 02:16:12;;;;;;;6.00;2.40;;;7.50;99.90;;;;;;5114162;27;20047;-63
2023/10/16 02:18:42;;;;;;;4.30;2.40;;;7.50;99.90;;;;;;5096548;27;20043;-63
2023/10/16 02:21:12;;;;;;;5.90;2.10;;;7.40;99.90;;;;;;5114284;27;20043;-63
2023/10/16 02:23:46;;;;;;;5.10;1.88;;;7.40;99.90;;;;;;5114060;27;20057;-63
2023/10/16 02:26:18;;;;;;;4.57;2.10;;;7.40;99.90;;;;;;5114235;27;20097;-63
2023/10/16 02:28:46;;;;;;;4.88;1.77;;;7.30;99.90;;;;;;5114104;27;20078;-63
2023/10/16 02:31:13;;;;;;;2.72;1.83;;;7.30;99.90;;;;;;5114066;27;20059;-63
2023/10/16 02:33:45;;;;;;;5.60;2.20;;;7.30;99.90;;;;;;5132391;27;20507;-63
2023/10/16 02:36:13;;;;;;;6.75;2.13;;;7.20;99.90;;;;;;5097339;27;20046;-63
2023/10/16 02:38:38;;;;;;;6.40;2.17;;;7.20;99.90;;;;;;5113960;27;20057;-63
2023/10/16 02:41:04;;;;;;;4.78;2.28;;;7.10;99.90;;;;;;5114090;27;20035;-63
2023/10/16 02:43:31;;;;;;;5.10;2.30;;;7.20;99.90;;;;;;5132671;27;20034;-63
2023/10/16 02:46:01;;;;;;;5.32;2.10;;;7.10;99.90;;;;;;5113551;27;20027;-63
2023/10/16 02:48:27;;;;;;;5.68;2.10;;;7.10;99.90;;;;;;5113675;27;20086;-63
2023/10/16 02:50:59;;;;;;;4.43;2.38;;;7.10;99.90;;;;;;5131801;27;20081;-63
2023/10/16 02:53:29;;;;;;;5.40;2.00;;;7.10;99.90;;;;;;5114401;27;20043;-63
2023/10/16 02:56:08;;;;;;;2.90;2.10;;;7.10;99.90;;;;;;5113515;27;20065;-63
2023/10/16 02:58:42;;;;;;;5.00;2.10;;;7.00;99.90;;;;;;5113609;27;20042;-63
2023/10/16 03:01:14;;;;;;;7.43;2.15;;;7.10;99.90;;;;;;5096092;27;20035;-63
2023/10/16 03:03:43;;;;;;;9.52;1.95;;;7.00;99.90;;;;;;5113761;27;20427;-63
2023/10/16 03:06:09;;;;;;;3.70;1.60;;;7.00;99.90;;;;;;5112780;27;20035;-63
2023/10/16 03:08:36;;;;;;;3.65;1.80;;;7.10;99.90;;;;;;5112741;27;20031;-63
2023/10/16 03:11:06;;;;;;;5.53;1.80;;;7.10;99.90;;;;;;5097294;27;20066;-63
2023/10/16 03:13:38;;;;;;;5.22;1.90;;;7.10;99.90;;;;;;5131803;27;20050;-63
2023/10/16 03:16:05;;;;;;;3.20;1.70;;;7.10;99.90;;;;;;5113542;27;20074;-63
2023/10/16 03:18:32;;;;;;;5.35;1.83;;;7.10;99.90;;;;;;5131635;27;20095;-63
2023/10/16 03:23:44;;;;;;;2.72;1.50;;;7.20;99.90;;;;;;5131570;27;20050;-63
2023/10/16 03:26:28;;;;;;;2.40;1.52;;;7.20;99.90;;;;;;5095420;27;20088;-63
2023/10/16 03:29:05;;;;;;;2.50;1.52;;;7.20;99.90;;;;;;5115098;27;20079;-63
2023/10/16 03:31:31;;;;;;;5.80;1.70;;;7.30;99.90;;;;;;5131444;27;20110;-63
2023/10/16 03:33:56;;;;;;;5.07;1.40;;;7.30;99.90;;;;;;5112840;27;20045;-63
2023/10/16 03:36:23;;;;;;;3.85;1.35;;;7.30;99.90;;;;;;5112837;27;20047;-63
2023/10/16 03:38:52;;;;;;;4.90;1.55;;;7.40;99.90;;;;;;5113092;27;20045;-63
2023/10/16 03:43:56;;;;;;;4.63;1.30;;;7.40;99.90;;;;;;5131140;27;20042;-63
2023/10/16 03:46:24;;;;;;;4.88;1.20;;;7.50;99.90;;;;;;5112870;27;20043;-63
2023/10/16 03:48:49;;;;;;;3.40;1.20;;;7.50;99.90;;;;;;5131726;27;20046;-63
2023/10/16 03:51:16;;;;;;;4.43;1.30;;;7.60;99.90;;;;;;5112491;27;20039;-63
2023/10/16 03:53:44;;;;;;;4.25;1.67;;;7.60;99.90;;;;;;5095841;28;20053;-63
2023/10/16 03:56:11;;;;;;;4.90;1.27;;;7.70;99.90;;;;;;5112923;27;20064;-63
2023/10/16 03:58:44;;;;;;;4.70;1.17;;;7.70;99.90;;;;;;5112515;27;20102;-63
2023/10/16 04:01:17;;;;;;;2.75;1.20;;;7.80;99.90;;;;;;5112699;28;20043;-63
2023/10/16 04:03:50;;;;;;;4.40;1.10;;;7.80;99.90;;;;;;5112970;28;20378;-63
2023/10/16 04:06:19;;;;;;;6.32;1.23;;;7.80;99.90;;;;;;5112658;28;20046;-63
2023/10/16 04:08:55;;;;;;;3.03;1.10;;;7.80;99.90;;;;;;5131002;28;20421;-63
2023/10/16 04:11:25;;;;;;;5.32;1.20;;;7.80;99.90;;;;;;5112440;28;20090;-63
2023/10/16 04:13:55;;;;;;;5.97;1.33;;;7.80;99.90;;;;;;5131157;28;20042;-63
2023/10/16 04:16:56;;;;;;;3.20;1.30;;;7.70;99.90;;;;;;5112268;28;20393;-63
2023/10/16 04:21:54;;;;;;;4.10;1.20;;;7.80;99.90;;;;;;5112669;28;20462;-63
2023/10/16 04:29:25;;;;;;;5.78;1.00;;;7.80;99.90;;;;;;5112352;28;20051;-63
2023/10/16 04:31:58;;;;;;;4.40;1.10;;;7.80;99.90;;;;;;5095501;28;20547;-63
2023/10/16 04:37:49;;;;;;;3.38;1.13;;;7.80;99.90;;;;;;5130598;27;20718;-63
2023/10/16 04:53:11;;;;;;;5.72;1.00;;;7.70;99.90;;;;;;5116334;27;20046;-63
2023/10/16 05:00:57;;;;;;;3.33;1.00;;;7.80;99.90;;;;;;5118433;27;20126;-63
2023/10/16 06:14:14;;;;;;;4.75;1.85;;;8.10;99.90;;;;;;5013398;28;20049;-63
2023/10/16 06:16:41;;;;;;;5.63;1.50;;;8.20;99.90;;;;;;5013051;28;20054;-63
2023/10/16 06:19:19;;;;;;;2.90;1.70;;;8.20;99.90;;;;;;5028695;28;20099;-63
2023/10/16 06:21:46;;;;;;;5.10;1.80;;;8.20;99.90;;;;;;5013197;28;20424;-63
2023/10/16 06:24:32;;;;;;;4.97;1.90;;;8.20;99.90;;;;;;5028919;28;20076;-64
2023/10/16 06:27:00;;;;;;;3.00;1.25;;;8.20;99.90;;;;;;5128092;27;20397;-63
2023/10/16 06:29:35;;;;;;;3.75;2.15;;;8.30;99.90;;;;;;5096685;27;20035;-63
2023/10/16 06:32:07;;;;;;;3.63;1.58;;;8.30;99.90;;;;;;5112582;27;20091;-63
2023/10/16 06:34:33;;;;;;;5.53;1.70;;;8.40;99.90;;;;;;5114084;27;20039;-63
2023/10/16 06:37:05;;;;;;;3.92;1.88;;;8.40;99.90;;;;;;5114291;27;20042;-63
2023/10/16 06:39:36;;;;;;;2.47;1.47;;;8.40;99.90;;;;;;5114986;27;20035;-64
2023/10/16 06:42:03;;;;;;;3.67;1.60;;;8.50;99.90;;;;;;5129991;27;20110;-63
2023/10/16 06:44:29;;;;;;;3.92;2.42;;;8.50;99.90;;;;;;5115166;27;20047;-63
2023/10/16 06:46:59;;;;;;;8.15;1.90;;;8.60;99.90;;;;;;5114588;27;20370;-63
2023/10/16 06:49:35;;;;;;;6.53;2.38;;;8.50;99.90;;;;;;5114172;27;20039;-63
2023/10/16 06:52:04;;;;;;;4.43;2.47;;;8.50;99.90;;;;;;5113837;27;20035;-63
2023/10/16 06:54:31;;;;;;;4.78;2.10;;;8.60;99.90;;;;;;5096627;27;20035;-63
2023/10/16 06:57:04;;;;;;;7.05;2.22;;;8.50;99.90;;;;;;5096319;27;20048;-63
2023/10/16 06:59:31;;;;;;;2.90;2.08;;;8.60;99.90;;;;;;5113400;27;20039;-63
2023/10/16 07:01:56;;;;;;;6.10;2.70;;;8.60;99.90;;;;;;5113632;27;20035;-63
2023/10/16 07:04:22;;;;;;;3.72;2.50;;;8.60;99.90;;;;;;5113753;27;20043;-63
2023/10/16 07:06:48;;;;;;;5.38;2.60;;;8.70;99.90;;;;;;5113568;27;20043;-63
2023/10/16 07:09:16;;;;;;;3.97;1.90;;;8.70;99.90;;;;;;5096248;27;20050;-63
2023/10/16 07:11:42;;;;;;;9.57;3.55;;;8.70;99.90;;;;;;5113864;27;20043;-63
2023/10/16 07:14:17;;;;;;;7.28;2.70;;;8.80;99.90;;;;;;5113445;27;20043;-64
2023/10/16 07:16:43;;;;;;;6.25;3.28;;;8.80;99.90;;;;;;5113718;27;20064;-63
2023/10/16 07:19:16;;;;;;;4.75;2.50;;;8.90;99.90;;;;;;5113209;27;20047;-63
2023/10/16 07:21:48;;;;;;;4.18;2.95;;;8.90;99.90;;;;;;5113371;27;20041;-63
2023/10/16 07:24:16;;;;;;;6.10;2.70;;;8.90;99.90;;;;;;5131686;27;20126;-63
2023/10/16 07:26:45;;;;;;;4.05;2.55;;;9.00;99.90;;;;;;5113462;27;20436;-63
2023/10/16 07:29:12;;;;;;;6.68;2.85;;;9.00;99.90;;;;;;5113190;27;20039;-63
2023/10/16 07:31:38;;;;;;;4.38;2.53;;;9.00;99.90;;;;;;5112831;27;20049;-63
2023/10/16 07:34:04;;;;;;;6.60;3.05;;;9.00;99.90;;;;;;5113098;27;20540;-63
2023/10/16 07:36:30;;;;;;;6.78;2.83;;;9.00;99.90;;;;;;5113194;27;20051;-63
2023/10/16 07:38:57;;;;;;;5.40;2.80;;;9.10;99.90;;;;;;5113021;27;20050;-63
2023/10/16 07:41:25;;;;;;;7.32;2.70;;;9.10;99.90;;;;;;5113552;27;20039;-63
2023/10/16 07:43:57;;;;;;;5.15;2.97;;;9.10;99.90;;;;;;5095478;27;20043;-63
2023/10/16 07:46:29;;;;;;;4.72;2.60;;;9.10;99.90;;;;;;5113609;27;20055;-63
2023/10/16 07:49:09;;;;;;;8.85;2.90;;;9.30;99.90;;;;;;5113187;27;20103;-63
2023/10/16 07:51:36;;;;;;;7.80;2.58;;;9.20;99.90;;;;;;5113270;28;20038;-63
2023/10/16 07:54:06;;;;;;;4.20;2.30;;;9.20;99.90;;;;;;5131608;27;20043;-63
2023/10/16 07:56:33;;;;;;;6.68;2.50;;;9.30;99.90;;;;;;5113021;27;20084;-63
2023/10/16 07:59:06;;;;;;;5.05;2.40;;;9.30;99.90;;;;;;5131239;27;20043;-63
2023/10/16 08:01:41;;;;;;;5.35;2.50;;;9.30;99.90;;;;;;5112701;27;20096;-63
2023/10/16 08:04:19;;;;;;;6.82;2.55;;;9.30;99.90;;;;;;5112502;28;20111;-63
2023/10/16 08:06:46;;;;;;;5.30;2.33;;;9.40;99.90;;;;;;5131109;28;20455;-63
2023/10/16 08:12:12;;;;;;;6.93;2.22;;;9.40;99.90;;;;;;5114281;27;20046;-63
2023/10/16 08:14:42;;;;;;;4.47;2.15;;;9.40;99.90;;;;;;5117288;27;20455;-63
2023/10/16 08:17:14;;;;;;;3.83;2.30;;;9.50;99.90;;;;;;5116996;27;20035;-63
2023/10/16 08:19:41;;;;;;;4.95;2.10;;;9.50;99.90;;;;;;5116847;27;20100;-63
2023/10/16 08:22:07;;;;;;;4.75;2.20;;;9.60;99.90;;;;;;5135328;27;20027;-62
2023/10/16 08:24:34;;;;;;;5.05;2.17;;;9.70;99.90;;;;;;5116692;27;20058;-63
2023/10/16 08:29:54;;;;;;;3.72;1.85;;;9.90;99.90;;;;;;5116600;27;20073;-63
2023/10/16 08:35:09;;;;;;;4.22;1.65;;;10.10;99.90;;;;;;5116619;27;20050;-63
2023/10/16 08:37:35;;;;;;;5.47;1.83;;;10.10;99.90;;;;;;5116815;27;20054;-63
2023/10/16 08:40:01;;;;;;;3.53;1.83;;;10.10;99.90;;;;;;5116528;27;20047;-63
2023/10/16 08:42:27;;;;;;;2.05;1.35;;;10.10;99.90;;;;;;5116907;27;20043;-63
2023/10/16 08:45:14;;;;;;;2.88;1.60;;;10.20;99.90;;;;;;5116649;27;20057;-63
2023/10/16 08:47:46;;;;;;;4.60;1.73;;;10.40;99.90;;;;;;5099285;27;20466;-63
2023/10/16 08:50:17;;;;;;;5.28;1.80;;;10.50;99.90;;;;;;5115203;27;20088;-63
2023/10/16 08:52:58;;;;;;;4.25;1.50;;;10.70;99.90;;;;;;5134742;27;21032;-63
2023/10/16 08:55:26;;;;;;;3.35;1.40;;;10.80;99.90;;;;;;5116442;27;20386;-63
2023/10/16 08:57:52;;;;;;;2.90;1.40;;;10.90;99.90;;;;;;5115965;27;20035;-63
2023/10/16 09:00:23;;;;;;;3.20;1.30;;;11.00;99.90;;;;;;5116158;27;20042;-63
2023/10/16 09:02:55;;;;;;;2.40;0.93;;;11.00;99.90;;;;;;5115969;27;20112;-63
2023/10/16 09:05:21;;;;;;;2.80;1.25;;;11.00;99.90;;;;;;5116128;27;20043;-62
2023/10/16 09:07:51;;;;;;;2.67;0.95;;;11.00;99.90;;;;;;5116462;27;20045;-63
2023/10/16 09:10:21;;;;;;;2.38;0.90;;;11.00;99.90;;;;;;5134240;27;20070;-63
2023/10/16 09:13:13;;;;;;;2.08;0.88;;;11.10;99.90;;;;;;5115863;27;20117;-63
2023/10/16 09:15:45;;;;;;;3.42;0.90;;;11.10;99.90;;;;;;5116238;27;20470;-63
2023/10/16 09:18:14;;;;;;;3.03;1.20;;;11.10;99.90;;;;;;5115754;27;20406;-63
2023/10/16 09:20:41;;;;;;;6.70;1.17;;;11.20;99.90;;;;;;5116156;27;20173;-63
2023/10/16 09:23:22;;;;;;;5.60;1.13;;;11.30;99.90;;;;;;5097027;27;20047;-63
2023/10/16 09:25:48;;;;;;;3.95;1.17;;;11.40;99.90;;;;;;5098205;27;20035;-63
2023/10/16 09:28:19;;;;;;;4.50;0.98;;;11.60;99.90;;;;;;5115359;27;20039;-63
2023/10/16 09:30:49;;;;;;;2.58;0.80;;;11.60;99.90;;;;;;5115713;27;20043;-64
2023/10/16 09:33:15;;;;;;;3.92;0.77;;;11.70;99.90;;;;;;5115849;27;20502;-63
2023/10/16 09:35:44;;;;;;;4.28;1.05;;;11.70;99.90;;;;;;5115602;27;20112;-63
2023/10/16 09:38:19;;;;;;;5.75;1.58;;;11.70;99.90;;;;;;5115101;27;20035;-63
2023/10/16 09:43:56;;;;;;;7.03;1.08;;;11.80;99.90;;;;;;5115563;27;20039;-63
2023/10/16 09:49:23;;;;;;;3.70;0.80;;;11.70;99.90;;;;;;5030123;28;20049;-63
2023/10/16 09:51:50;;;;;;;4.55;0.85;;;11.70;99.90;;;;;;5013640;28;20057;-63
2023/10/16 09:54:17;;;;;;;3.38;0.60;;;11.70;99.90;;;;;;5029874;28;20049;-64
2023/10/16 09:56:48;;;;;;;3.35;0.75;;;11.70;99.90;;;;;;5014011;28;20037;-63
2023/10/16 09:59:38;;;;;;;3.92;0.80;;;11.80;99.90;;;;;;5029761;28;20224;-63
2023/10/16 10:02:16;;;;;;;2.30;0.80;;;11.80;99.90;;;;;;5030056;28;20041;-63
2023/10/16 10:05:12;;;;;;;3.58;0.80;;;11.90;99.90;;;;;;5013516;28;20068;-63
2023/10/16 10:07:48;;;;;;;3.03;0.70;;;12.10;99.90;;;;;;5013488;28;20441;-63
2023/10/16 10:13:15;;;;;;;3.60;0.90;;;12.70;99.90;;;;;;5012066;28;20570;-63
2023/10/16 10:15:47;;;;;;;4.82;0.68;;;13.00;99.90;;;;;;5019394;28;20567;-63
2023/10/16 10:18:31;;;;;;;4.78;0.80;;;13.10;99.90;;;;;;5021792;28;20045;-63
2023/10/16 10:21:03;;;;;;;4.50;0.80;;;13.30;99.90;;;;;;5012467;28;20403;-63
2023/10/16 10:23:32;;;;;;;4.32;0.80;;;13.50;99.90;;;;;;5021778;28;20056;-64
2023/10/16 10:26:02;;;;;;;3.55;0.95;;;13.70;99.90;;;;;;5122999;27;20046;-63
2023/10/16 10:28:40;;;;;;;2.67;0.80;;;13.90;99.90;;;;;;5113591;27;20067;-63
2023/10/16 10:31:07;;;;;;;4.75;0.90;;;14.00;99.90;;;;;;5114021;27;20057;-63
2023/10/16 10:33:36;;;;;;;2.00;0.60;;;14.20;99.90;;;;;;5114067;27;20039;-63
2023/10/16 10:36:34;;;;;;;5.47;0.80;;;14.40;99.90;;;;;;5113228;27;20378;-63
2023/10/16 10:39:21;;;;;;;3.22;0.80;;;14.60;99.90;;;;;;5114048;27;20096;-63
2023/10/16 10:41:51;;;;;;;2.95;0.82;;;14.90;99.90;;;;;;5132307;27;20046;-63
2023/10/16 10:44:21;;;;;;;5.97;0.90;;;15.20;99.90;;;;;;5132259;27;20175;-63
2023/10/16 10:46:53;;;;;;;6.10;0.93;;;15.50;99.90;;;;;;5132340;27;20036;-63
2023/10/16 10:49:30;;;;;;;3.90;0.75;;;15.70;99.90;;;;;;5113947;27;20131;-63
2023/10/16 10:51:55;;;;;;;3.03;0.93;;;15.90;99.90;;;;;;5132238;27;20043;-63
2023/10/16 10:54:24;;;;;;;3.17;1.20;;;15.90;99.90;;;;;;5113457;27;20127;-64
2023/10/16 10:56:50;;;;;;;3.78;0.85;;;16.00;99.90;;;;;;5113615;27;20092;-64
2023/10/16 10:59:41;;;;;;;3.92;0.80;;;16.10;99.90;;;;;;5113498;27;20092;-63
2023/10/16 11:02:20;;;;;;;1.88;0.57;;;16.20;99.90;;;;;;5113945;27;20718;-63
2023/10/16 11:04:58;;;;;;;3.15;0.80;;;16.30;99.90;;;;;;5112908;27;20039;-63
2023/10/16 11:07:39;;;;;;;5.28;0.90;;;16.30;99.90;;;;;;5113487;27;20046;-63
2023/10/16 11:10:06;;;;;;;4.82;1.10;;;16.40;99.90;;;;;;5113960;27;20035;-63
2023/10/16 11:12:32;;;;;;;5.65;0.90;;;16.30;99.90;;;;;;5113415;27;20047;-64
2023/10/16 11:15:01;;;;;;;7.97;1.33;;;16.30;99.90;;;;;;5131415;27;20042;-64
2023/10/16 11:17:39;;;;;;;2.90;1.00;;;16.20;99.90;;;;;;5112730;27;20051;-63
2023/10/16 11:20:38;;;;;;;4.05;0.82;;;16.00;99.90;;;;;;5113414;27;20058;-63
2023/10/16 11:22:58;;;;;;;1.83;0.70;;;15.80;99.90;;;;;;5110018;27;20039;-63
2023/10/16 11:25:31;;;;;;;3.28;0.80;;;15.60;99.90;;;;;;5112910;27;20050;-64
2023/10/16 11:28:02;;;;;;;5.05;0.98;;;15.40;99.90;;;;;;5112838;27;20046;-63
2023/10/16 11:30:32;;;;;;;5.07;1.15;;;15.30;99.90;;;;;;5131495;27;20039;-64
2023/10/16 11:32:57;;;;;;;3.80;1.00;;;15.30;99.90;;;;;;5112894;27;20035;-63
2023/10/16 11:35:26;;;;;;;2.78;0.70;;;15.30;99.90;;;;;;5112878;27;20043;-63
2023/10/16 11:37:59;;;;;;;12.38;1.00;;;15.30;99.90;;;;;;5131030;27;20050;-62
2023/10/16 11:40:31;;;;;;;6.05;1.00;;;15.20;99.90;;;;;;5112989;27;20121;-62
2023/10/16 11:42:58;;;;;;;4.90;1.00;;;15.00;99.90;;;;;;5131439;27;20039;-62
2023/10/16 11:45:24;;;;;;;3.90;1.00;;;15.00;99.90;;;;;;5112961;27;20035;-62
2023/10/16 11:50:38;;;;;;;3.05;0.77;;;14.70;99.90;;;;;;5131281;27;20039;-62
2023/10/16 11:53:07;;;;;;;2.78;0.93;;;14.50;99.90;;;;;;5112775;27;20054;-62
2023/10/16 11:55:38;;;;;;;4.05;0.90;;;14.30;99.90;;;;;;5131266;27;20037;-62
2023/10/16 11:58:08;;;;;;;3.60;0.90;;;14.20;99.90;;;;;;5112381;27;20402;-62
2023/10/16 12:00:42;;;;;;;2.60;0.90;;;14.10;99.90;;;;;;5131295;27;20126;-62
2023/10/16 12:03:14;;;;;;;6.60;1.13;;;14.00;99.90;;;;;;5130935;27;20172;-62
2023/10/16 12:05:42;;;;;;;4.47;0.90;;;13.90;99.90;;;;;;5112649;28;20091;-63
2023/10/16 12:08:08;;;;;;;6.65;1.00;;;13.80;99.90;;;;;;5112441;28;20046;-62
2023/10/16 12:10:36;;;;;;;3.45;1.00;;;13.80;99.90;;;;;;5112804;28;20080;-63
2023/10/16 12:13:03;;;;;;;4.13;1.08;;;13.80;99.90;;;;;;5130182;28;20043;-62
2023/10/16 12:15:32;;;;;;;3.80;1.27;;;13.80;99.90;;;;;;5112520;28;20416;-63
2023/10/16 12:18:00;;;;;;;4.80;1.00;;;13.80;99.90;;;;;;5112325;28;20043;-62
2023/10/16 12:20:27;;;;;;;3.78;1.02;;;13.90;99.90;;;;;;5131088;28;20401;-63
2023/10/16 12:22:56;;;;;;;4.72;1.02;;;13.90;99.90;;;;;;5130243;28;20039;-62
2023/10/16 12:25:23;;;;;;;5.03;0.95;;;13.90;99.90;;;;;;5112143;28;20042;-62
2023/10/16 12:27:52;;;;;;;7.13;1.20;;;14.00;99.90;;;;;;5130802;28;20031;-62
2023/10/16 12:30:19;;;;;;;3.45;1.00;;;14.10;99.90;;;;;;5112546;28;20096;-62
2023/10/16 12:32:45;;;;;;;3.15;1.00;;;14.10;99.90;;;;;;5112317;28;20512;-62
2023/10/16 12:35:12;;;;;;;4.88;1.42;;;14.10;99.90;;;;;;5130623;28;20035;-62
2023/10/16 12:37:41;;;;;;;5.03;1.20;;;14.20;99.90;;;;;;5112701;28;20509;-62
2023/10/16 12:42:53;;;;;;;3.58;1.00;;;14.40;99.90;;;;;;5112288;28;20428;-62
2023/10/16 12:45:22;;;;;;;4.10;0.75;;;14.40;99.90;;;;;;5112083;28;20043;-63
2023/10/16 12:47:54;;;;;;;6.13;0.88;;;14.40;99.90;;;;;;5112455;28;20039;-63
2023/10/16 12:50:24;;;;;;;3.15;0.77;;;14.30;99.90;;;;;;5112237;28;20047;-62
2023/10/16 12:52:54;;;;;;;3.72;0.82;;;14.20;99.90;;;;;;5112137;28;20076;-62
2023/10/16 12:55:22;;;;;;;4.88;0.80;;;14.20;99.90;;;;;;5111597;28;20043;-62
2023/10/16 12:57:48;;;;;;;4.63;1.13;;;14.20;99.90;;;;;;5112265;28;20051;-62
2023/10/16 13:00:16;;;;;;;4.43;1.00;;;14.20;99.90;;;;;;5115182;27;20039;-62
2023/10/16 13:02:43;;;;;;;2.95;0.90;;;14.20;99.90;;;;;;5116086;27;20082;-62
2023/10/16 13:05:15;;;;;;;3.75;0.90;;;14.10;99.90;;;;;;5115295;27;20401;-63
2023/10/16 13:07:42;;;;;;;4.03;1.00;;;14.30;99.90;;;;;;5115340;27;20454;-63
2023/10/16 13:10:19;;;;;;;2.65;0.70;;;14.30;99.90;;;;;;5113320;27;20045;-63
2023/10/16 13:12:46;;;;;;;3.25;0.98;;;14.30;99.90;;;;;;5114654;27;20051;-63
2023/10/16 13:15:16;;;;;;;3.72;0.90;;;14.30;99.90;;;;;;5132701;27;20071;-62
2023/10/16 13:17:45;;;;;;;5.93;1.35;;;14.50;99.90;;;;;;5132866;27;20046;-62
2023/10/16 13:20:20;;;;;;;4.65;0.90;;;14.70;99.90;;;;;;5115509;27;20035;-63
2023/10/16 13:22:54;;;;;;;3.50;1.08;;;14.70;99.90;;;;;;5134113;27;20031;-62
2023/10/16 13:25:22;;;;;;;4.43;0.95;;;14.70;99.90;;;;;;5114996;27;20045;-63
2023/10/16 13:27:49;;;;;;;4.63;0.90;;;14.60;99.90;;;;;;5115346;27;20075;-62
2023/10/16 13:30:18;;;;;;;3.20;0.80;;;14.60;99.90;;;;;;5115523;27;20495;-62
2023/10/16 13:32:48;;;;;;;4.00;1.08;;;14.50;99.90;;;;;;5115217;27;20042;-62
2023/10/16 13:35:18;;;;;;;5.90;1.50;;;14.60;99.90;;;;;;5097503;27;20122;-62
2023/10/16 13:37:49;;;;;;;3.67;1.20;;;14.50;99.90;;;;;;5114894;27;20069;-63
2023/10/16 13:40:21;;;;;;;5.78;0.80;;;14.50;99.90;;;;;;5115258;27;20503;-62
2023/10/16 13:42:51;;;;;;;2.58;0.80;;;14.40;99.90;;;;;;5114749;27;20035;-62
2023/10/16 13:45:18;;;;;;;3.63;0.85;;;14.20;99.90;;;;;;5114799;27;20039;-61
2023/10/16 13:47:45;;;;;;;4.88;0.93;;;14.10;99.90;;;;;;5097597;27;20070;-63
2023/10/16 13:50:16;;;;;;;4.35;0.93;;;14.00;99.90;;;;;;5114905;27;20035;-63
2023/10/16 13:52:45;;;;;;;5.00;0.80;;;14.00;99.90;;;;;;5133469;27;20031;-62
2023/10/16 13:55:14;;;;;;;4.38;0.80;;;13.90;99.90;;;;;;5095106;27;20189;-62
2023/10/16 13:57:43;;;;;;;2.65;0.75;;;13.90;99.90;;;;;;5127229;27;20130;-63
2023/10/16 14:00:35;;;;;;;4.75;1.00;;;13.80;99.90;;;;;;5114473;27;20066;-63
2023/10/16 14:05:46;;;;;;;4.88;1.02;;;13.60;99.90;;;;;;5132885;27;20057;-63
2023/10/16 14:08:17;;;;;;;3.38;0.85;;;13.50;99.90;;;;;;5114238;27;21363;-63
2023/10/16 14:10:49;;;;;;;3.58;1.02;;;13.40;99.90;;;;;;5113403;27;20038;-63
2023/10/16 14:13:18;;;;;;;;;;;13.30;99.90;;;;;;5114049;27;20050;-62
2023/10/16 14:15:49;;;;;;;3.10;0.70;;;13.30;99.90;;;;;;5114093;27;19919;-62
2023/10/16 14:18:21;;;;;;;3.58;0.80;;;13.20;99.90;;;;;;5114474;27;20046;-63
2023/10/16 14:20:50;;;;;;;3.33;0.90;;;13.30;99.90;;;;;;5113596;27;20070;-62
2023/10/16 14:23:18;;;;;;;3.20;0.80;;;13.20;99.90;;;;;;5132344;27;20047;-62
2023/10/16 14:25:48;;;;;;;4.10;1.00;;;13.20;99.90;;;;;;5114352;27;20065;-62
2023/10/16 14:31:03;;;;;;;2.72;1.00;;;13.30;99.90;;;;;;5112971;27;20454;-62
2023/10/16 14:33:32;;;;;;;3.95;0.82;;;13.20;99.90;;;;;;5113662;27;20043;-62
2023/10/16 14:35:58;;;;;;;5.15;0.85;;;13.20;99.90;;;;;;5114111;27;20486;-62
2023/10/16 14:38:26;;;;;;;3.83;0.77;;;13.20;99.90;;;;;;5112577;27;20047;-62
2023/10/16 14:40:55;;;;;;;2.42;0.80;;;13.20;99.90;;;;;;5114509;27;20077;-63
2023/10/16 14:43:24;;;;;;;4.47;0.80;;;13.20;99.90;;;;;;5112721;27;20074;-63
2023/10/16 14:45:53;;;;;;;4.60;0.93;;;13.20;99.90;;;;;;5113290;27;20035;-63
2023/10/16 14:48:22;;;;;;;3.75;0.95;;;13.20;99.90;;;;;;5113697;27;20043;-63
2023/10/16 14:50:48;;;;;;;2.75;0.60;;;13.10;99.90;;;;;;5113200;27;20475;-63
2023/10/16 14:53:17;;;;;;;3.40;0.88;;;13.10;99.90;;;;;;5111600;27;20165;-63
2023/10/16 14:55:43;;;;;;;3.65;0.80;;;13.10;99.90;;;;;;5113262;27;20110;-63
2023/10/16 14:58:10;;;;;;;4.07;1.02;;;13.10;99.90;;;;;;5131509;27;20492;-63
2023/10/16 15:00:41;;;;;;;4.90;1.00;;;13.00;99.90;;;;;;5131669;27;20035;-63
2023/10/16 15:03:10;;;;;;;3.63;1.07;;;13.00;99.90;;;;;;5112857;27;20504;-63
2023/10/16 15:05:39;;;;;;;2.80;0.68;;;13.00;99.90;;;;;;5113039;27;20035;-63
2023/10/16 15:08:06;;;;;;;3.55;0.75;;;13.00;99.90;;;;;;5095472;27;20055;-63
2023/10/16 15:10:32;;;;;;;2.55;0.70;;;13.00;99.90;;;;;;5096099;27;20039;-63
2023/10/16 15:12:59;;;;;;;6.07;0.90;;;12.90;99.90;;;;;;5131090;27;20060;-63
2023/10/16 15:15:25;;;;;;;2.35;0.73;;;12.90;99.90;;;;;;5106360;27;21552;-63
2023/10/16 15:17:51;;;;;;;3.65;1.00;;;12.90;99.90;;;;;;5094434;27;20054;-63
2023/10/16 15:20:17;;;;;;;5.15;2.28;;;12.90;99.90;;;;;;5077058;27;20046;-63
2023/10/16 15:22:44;;;;;;;3.42;0.95;;;12.90;99.90;;;;;;5093603;27;20039;-63